createdAt,value
2019-01-03T00:03:46.530Z,3.27
2019-01-03T00:12:40.221Z,3.40
2019-01-03T00:19:28.750Z,2.87
2019-01-03T00:26:19.395Z,3.60
2019-01-03T00:33:08.249Z,3.33
2019-01-03T00:40:15.243Z,3.63
2019-01-03T00:47:02.915Z,3.47
2019-01-03T00:54:29.287Z,4.73
2019-01-03T01:01:24.009Z,3.63
2019-01-03T01:09:15.917Z,3.43
2019-01-03T01:16:04.665Z,2.93
2019-01-03T01:22:53.308Z,3.90
2019-01-03T01:31:45.993Z,3.40
2019-01-03T01:38:53.923Z,4.03
2019-01-03T01:47:45.573Z,3.53
2019-01-03T01:54:35.505Z,3.83
2019-01-03T02:01:24.261Z,4.10
2019-01-03T02:08:13.053Z,3.83
2019-01-03T02:15:15.849Z,3.53
2019-01-03T02:22:04.758Z,3.70
2019-01-03T02:28:57.469Z,3.90
2019-01-03T02:35:47.181Z,3.00
2019-01-03T02:42:42.760Z,3.83
2019-01-03T02:50:04.057Z,3.40
2019-01-03T02:56:53.508Z,3.70
2019-01-03T03:04:12.114Z,3.70
2019-01-03T03:11:15.748Z,3.47
2019-01-03T03:18:04.577Z,3.03
2019-01-03T03:24:53.588Z,3.40
2019-01-03T03:31:42.247Z,3.40
2019-01-03T03:38:31.025Z,3.30
2019-01-03T03:45:19.809Z,2.83
2019-01-03T03:52:13.415Z,3.40
2019-01-03T03:59:20.390Z,2.90
2019-01-03T04:06:09.063Z,3.97
2019-01-03T04:12:59.734Z,3.30
2019-01-03T04:20:22.813Z,2.93
2019-01-03T04:27:11.690Z,3.03
2019-01-03T04:34:14.790Z,3.07
2019-01-03T04:41:05.454Z,3.33
2019-01-03T04:47:54.194Z,3.10
2019-01-03T04:54:42.985Z,2.90
2019-01-03T05:01:45.749Z,2.90
2019-01-03T05:08:40.438Z,2.30
2019-01-03T05:15:29.311Z,3.40
2019-01-03T05:22:18.087Z,3.10
2019-01-03T05:29:05.744Z,3.03
2019-01-03T05:35:54.653Z,4.83
2019-01-03T05:42:43.233Z,3.30
2019-01-03T05:50:07.802Z,4.17
2019-01-03T05:56:56.498Z,3.27
2019-01-03T06:03:47.062Z,2.90
2019-01-03T06:10:35.749Z,3.47
2019-01-03T06:18:28.278Z,2.53
2019-01-03T06:25:17.138Z,3.20
2019-01-03T06:34:10.558Z,3.40
2019-01-03T06:40:58.347Z,5.20
2019-01-03T06:47:47.221Z,3.17
2019-01-03T06:54:35.993Z,3.63
2019-01-03T07:01:24.869Z,3.47
2019-01-03T07:08:16.285Z,4.33
2019-01-03T07:15:09.914Z,4.00
2019-01-03T07:22:04.565Z,3.67
2019-01-03T07:28:53.125Z,4.20
2019-01-03T07:35:47.765Z,4.23
2019-01-03T07:43:35.402Z,3.63
2019-01-03T07:50:27.258Z,4.13
2019-01-03T07:57:15.917Z,4.17
2019-01-03T08:05:02.580Z,3.43
2019-01-03T08:13:52.262Z,3.42
2019-01-03T08:20:41.109Z,3.73
2019-01-03T08:34:32.832Z,4.10
2019-01-03T08:41:52.846Z,3.97
2019-01-03T08:48:42.405Z,4.20
2019-01-03T08:55:36.990Z,3.73
2019-01-03T09:02:27.502Z,4.27
2019-01-03T09:10:19.146Z,3.93
2019-01-03T09:17:11.795Z,4.53
2019-01-03T09:25:00.582Z,4.00
2019-01-03T09:31:49.390Z,4.53
2019-01-03T09:38:41.171Z,3.63
2019-01-03T09:45:24.642Z,4.27
2019-01-03T09:52:08.089Z,4.40
2019-01-03T09:58:51.597Z,3.97
2019-01-03T10:05:35.043Z,4.03
2019-01-03T10:12:18.505Z,4.37
2019-01-03T10:19:01.957Z,4.20
2019-01-03T10:25:45.417Z,4.20
2019-01-03T10:32:28.955Z,4.70
2019-01-03T10:39:12.419Z,4.27
2019-01-03T10:45:55.905Z,3.57
2019-01-03T10:52:39.353Z,3.93
2019-01-03T10:59:22.987Z,3.47
2019-01-03T11:06:06.481Z,4.07
2019-01-03T11:12:49.997Z,3.67
2019-01-03T11:19:33.455Z,3.17
2019-01-03T11:26:16.915Z,3.87
2019-01-03T11:33:00.385Z,4.43
2019-01-03T11:39:43.860Z,3.80
2019-01-03T11:46:27.333Z,3.23
2019-01-03T11:53:10.786Z,3.63
2019-01-03T11:59:54.218Z,3.20
2019-01-03T12:06:37.657Z,4.17
2019-01-03T12:13:21.110Z,3.03
2019-01-03T12:20:04.878Z,2.80
2019-01-03T12:26:48.433Z,3.10
2019-01-03T12:33:31.881Z,3.00
2019-01-03T12:40:15.341Z,3.97
2019-01-03T12:46:58.815Z,3.47
2019-01-03T12:53:42.261Z,4.07
2019-01-03T13:00:25.702Z,3.17
2019-01-03T13:07:09.186Z,3.17
2019-01-03T13:13:52.645Z,4.43
2019-01-03T13:20:36.113Z,4.00
2019-01-03T13:27:19.556Z,5.50
2019-01-03T13:34:03.103Z,5.57
2019-01-03T13:40:46.621Z,5.80
2019-01-03T13:47:30.094Z,6.20
2019-01-03T13:54:13.541Z,5.70
2019-01-03T14:00:56.993Z,5.63
2019-01-03T14:07:40.950Z,6.40
2019-01-03T14:14:24.406Z,6.97
2019-01-03T14:21:07.876Z,6.53
2019-01-03T14:27:51.332Z,7.57
2019-01-03T14:34:34.790Z,6.90
2019-01-03T14:41:18.242Z,6.70
2019-01-03T14:48:01.689Z,7.57
2019-01-03T14:54:45.142Z,6.73
2019-01-03T15:01:28.646Z,8.03
2019-01-03T15:08:12.109Z,8.47
2019-01-03T15:14:55.654Z,7.93
2019-01-03T15:21:39.361Z,8.33
2019-01-03T15:28:22.805Z,8.07
2019-01-03T15:35:06.397Z,9.17
2019-01-03T15:41:49.940Z,8.00
2019-01-03T15:48:33.489Z,8.20
2019-01-03T15:55:17.086Z,7.93
2019-01-03T16:02:00.589Z,9.47
2019-01-03T16:08:44.157Z,7.90
2019-01-03T16:15:27.730Z,9.57
2019-01-03T16:22:11.250Z,7.87
2019-01-03T16:28:54.709Z,8.97
2019-01-03T16:35:38.157Z,9.03
2019-01-03T16:42:21.720Z,8.97
2019-01-03T16:49:05.209Z,9.33
2019-01-03T16:55:48.653Z,10.53
2019-01-03T17:02:32.146Z,9.80
2019-01-03T17:09:15.650Z,9.67
2019-01-03T17:15:59.115Z,11.13
2019-01-03T17:22:42.733Z,9.87
2019-01-03T17:29:26.288Z,11.77
2019-01-03T17:43:25.601Z,14.10
2019-01-03T17:50:09.792Z,10.67
2019-01-03T17:56:54.137Z,12.53
2019-01-03T18:03:39.319Z,12.77
2019-01-03T18:10:22.805Z,11.23
2019-01-03T18:17:06.314Z,13.57
2019-01-03T18:23:49.838Z,17.13
2019-01-03T18:30:33.305Z,13.33
2019-01-03T18:37:18.669Z,12.93
2019-01-03T18:44:02.137Z,13.10
2019-01-03T18:50:45.614Z,13.13
2019-01-03T18:57:29.177Z,13.60
2019-01-03T19:05:59.861Z,13.28
2019-01-03T19:12:43.394Z,11.43
2019-01-03T19:19:26.975Z,13.87
2019-01-03T19:26:11.558Z,14.17
2019-01-03T19:32:55.115Z,14.53
2019-01-03T19:39:39.597Z,14.70
2019-01-03T19:46:23.118Z,15.00
2019-01-03T19:53:06.582Z,14.60
2019-01-03T19:59:50.166Z,16.60
2019-01-03T20:06:33.690Z,16.05
2019-01-03T20:13:17.236Z,15.37
2019-01-03T20:26:31.293Z,17.43
2019-01-03T20:40:42.916Z,15.83
2019-01-03T20:47:27.032Z,16.93
2019-01-03T20:54:11.060Z,19.03
2019-01-03T21:00:55.153Z,16.50
2019-01-03T21:12:58.718Z,19.77
2019-01-03T21:19:42.762Z,20.93
2019-01-03T21:32:46.990Z,17.63
2019-01-03T21:39:31.243Z,18.50
2019-01-03T21:46:16.268Z,17.80
2019-01-03T21:59:05.076Z,18.97
2019-01-03T22:05:49.122Z,18.27
2019-01-03T22:12:33.293Z,17.80
2019-01-03T22:19:17.335Z,18.33
2019-01-03T22:26:01.429Z,19.03
2019-01-03T22:32:45.498Z,17.67
2019-01-03T22:39:29.553Z,18.07
2019-01-03T22:46:13.679Z,19.37
2019-01-03T22:52:59.553Z,17.90
2019-01-03T22:59:43.621Z,18.30
2019-01-03T23:06:27.711Z,18.83
2019-01-03T23:13:11.858Z,18.10
2019-01-03T23:19:55.934Z,16.40
2019-01-03T23:26:40.014Z,18.13
2019-01-03T23:33:24.178Z,17.70
2019-01-03T23:40:08.297Z,19.93
2019-01-03T23:46:52.485Z,17.90
2019-01-03T23:53:37.509Z,18.90
